createdAt,value
2022-07-27T00:01:50.589Z,25.70
2022-07-27T00:04:36.138Z,25.70
2022-07-27T00:07:12.177Z,25.80
2022-07-27T00:09:41.488Z,25.80
2022-07-27T00:12:15.517Z,25.90
2022-07-27T00:14:44.933Z,26.00
2022-07-27T00:17:14.286Z,26.00
2022-07-27T00:19:43.345Z,26.10
2022-07-27T00:22:12.556Z,26.20
2022-07-27T00:24:41.640Z,26.30
2022-07-27T00:27:10.841Z,26.30
2022-07-27T00:29:39.986Z,26.50
2022-07-27T00:32:12.617Z,26.50
2022-07-27T00:34:42.168Z,26.60
2022-07-27T00:37:11.278Z,26.80
2022-07-27T00:39:40.506Z,26.90
2022-07-27T00:42:12.427Z,27.00
2022-07-27T00:44:41.552Z,27.10
2022-07-27T00:47:10.748Z,27.10
2022-07-27T00:49:39.795Z,27.20
2022-07-27T00:52:10.005Z,27.30
2022-07-27T00:54:39.382Z,27.30
2022-07-27T00:57:11.240Z,27.40
2022-07-27T00:59:41.233Z,27.50
2022-07-27T01:02:12.035Z,27.50
2022-07-27T01:04:41.544Z,27.50
2022-07-27T01:07:15.921Z,27.60
2022-07-27T01:10:00.507Z,27.70
2022-07-27T01:12:33.325Z,27.70
2022-07-27T01:15:02.908Z,27.80
2022-07-27T01:17:32.555Z,27.80
2022-07-27T01:20:02.238Z,27.90
2022-07-27T01:22:31.622Z,28.00
2022-07-27T01:25:00.983Z,28.00
2022-07-27T01:27:30.372Z,28.10
2022-07-27T01:30:19.467Z,28.20
2022-07-27T01:32:48.802Z,28.20
2022-07-27T01:35:18.180Z,28.30
2022-07-27T01:37:48.177Z,28.50
2022-07-27T01:40:26.745Z,28.50
2022-07-27T01:42:58.905Z,28.60
2022-07-27T01:45:29.329Z,28.60
2022-07-27T01:47:58.714Z,28.70
2022-07-27T01:50:28.128Z,28.80
2022-07-27T01:52:57.458Z,28.90
2022-07-27T01:55:27.286Z,28.90
2022-07-27T01:58:08.285Z,29.00
2022-07-27T02:00:38.330Z,29.00
2022-07-27T02:03:12.443Z,29.10
2022-07-27T02:05:42.088Z,29.20
2022-07-27T02:08:12.044Z,29.30
2022-07-27T02:11:02.078Z,29.40
2022-07-27T02:13:31.586Z,29.50
2022-07-27T02:16:00.989Z,29.60
2022-07-27T02:18:34.860Z,29.60
2022-07-27T02:21:07.135Z,29.70
2022-07-27T02:23:37.021Z,29.80
2022-07-27T02:26:08.007Z,29.80
2022-07-27T02:28:37.751Z,29.90
2022-07-27T02:31:06.901Z,30.00
2022-07-27T02:33:36.206Z,30.00
2022-07-27T02:36:05.950Z,30.00
2022-07-27T02:38:35.161Z,30.10
2022-07-27T02:41:04.267Z,30.20
2022-07-27T02:43:33.443Z,30.30
2022-07-27T02:46:02.552Z,30.40
2022-07-27T02:48:33.699Z,30.50
2022-07-27T02:51:03.554Z,30.60
2022-07-27T02:53:33.172Z,30.90
2022-07-27T02:56:02.332Z,31.00
2022-07-27T02:58:31.423Z,31.20
2022-07-27T03:01:00.803Z,31.40
2022-07-27T03:03:33.766Z,31.60
2022-07-27T03:06:07.913Z,31.70
2022-07-27T03:08:37.791Z,31.80
2022-07-27T03:11:07.028Z,32.00
2022-07-27T03:13:36.186Z,32.10
2022-07-27T03:16:05.494Z,32.20
2022-07-27T03:18:34.778Z,32.30
2022-07-27T03:21:03.835Z,32.40
2022-07-27T03:23:32.953Z,32.50
2022-07-27T03:26:02.382Z,32.50
2022-07-27T03:28:31.479Z,32.60
2022-07-27T03:31:01.146Z,32.60
2022-07-27T03:33:30.483Z,32.70
2022-07-27T03:35:59.557Z,32.60
2022-07-27T03:38:28.700Z,32.70
2022-07-27T03:40:57.842Z,32.80
2022-07-27T03:43:26.960Z,32.90
2022-07-27T03:45:56.189Z,32.90
2022-07-27T03:48:25.390Z,33.10
2022-07-27T03:50:54.921Z,33.30
2022-07-27T03:53:24.209Z,33.50
2022-07-27T03:55:53.781Z,33.70
2022-07-27T03:58:24.432Z,33.70
2022-07-27T04:00:53.801Z,33.90
2022-07-27T04:03:22.975Z,34.00
2022-07-27T04:05:52.077Z,34.10
2022-07-27T04:08:22.383Z,34.20
2022-07-27T04:10:51.499Z,34.30
2022-07-27T04:13:22.793Z,34.40
2022-07-27T04:15:51.982Z,34.50
2022-07-27T04:18:21.063Z,34.60
2022-07-27T04:20:50.174Z,34.70
2022-07-27T04:23:19.247Z,34.80
2022-07-27T04:25:48.394Z,35.00
2022-07-27T04:28:17.589Z,35.10
2022-07-27T04:30:46.749Z,35.20
2022-07-27T04:33:16.003Z,35.20
2022-07-27T04:35:45.472Z,35.20
2022-07-27T04:38:14.573Z,35.20
2022-07-27T04:40:43.728Z,35.20
2022-07-27T04:43:12.813Z,35.20
2022-07-27T04:45:41.965Z,35.20
2022-07-27T04:48:11.830Z,35.20
2022-07-27T04:50:50.846Z,35.30
2022-07-27T04:53:20.140Z,35.40
2022-07-27T04:55:49.553Z,35.40
2022-07-27T04:58:18.808Z,35.50
2022-07-27T05:00:48.024Z,35.50
2022-07-27T05:03:17.279Z,35.50
2022-07-27T05:05:50.083Z,35.60
2022-07-27T05:08:20.729Z,35.60
2022-07-27T05:10:50.307Z,35.70
2022-07-27T05:13:19.442Z,35.60
2022-07-27T05:15:54.865Z,35.70
2022-07-27T05:18:26.419Z,35.70
2022-07-27T05:20:55.614Z,35.80
2022-07-27T05:23:24.988Z,35.90
2022-07-27T05:25:54.318Z,36.00
2022-07-27T05:28:23.720Z,36.20
2022-07-27T05:30:53.141Z,36.20
2022-07-27T05:33:22.515Z,36.20
2022-07-27T05:35:52.008Z,36.20
2022-07-27T05:38:21.327Z,36.20
2022-07-27T05:40:51.777Z,36.20
2022-07-27T05:43:21.106Z,36.20
2022-07-27T05:45:50.759Z,36.10
2022-07-27T05:48:20.259Z,36.10
2022-07-27T05:50:49.601Z,36.10
2022-07-27T05:53:19.346Z,36.10
2022-07-27T05:55:58.479Z,36.00
2022-07-27T05:58:37.877Z,36.00
2022-07-27T06:01:07.265Z,36.20
2022-07-27T06:06:36.115Z,36.30
2022-07-27T06:09:06.306Z,36.50
2022-07-27T06:11:35.833Z,36.60
2022-07-27T06:14:05.161Z,36.70
2022-07-27T06:16:34.765Z,36.80
2022-07-27T06:19:04.112Z,36.90
2022-07-27T06:21:33.573Z,36.90
2022-07-27T06:24:03.015Z,36.90
2022-07-27T06:26:32.382Z,36.90
2022-07-27T06:29:02.480Z,36.90
2022-07-27T06:31:39.463Z,36.90
2022-07-27T06:34:12.141Z,36.90
2022-07-27T06:36:46.214Z,36.70
2022-07-27T06:39:16.073Z,36.50
2022-07-27T06:41:46.043Z,36.30
2022-07-27T06:44:15.478Z,36.10
2022-07-27T06:46:44.945Z,36.10
2022-07-27T06:49:14.581Z,36.00
2022-07-27T06:51:44.146Z,36.10
2022-07-27T06:54:13.532Z,36.10
2022-07-27T06:56:42.844Z,36.10
2022-07-27T06:59:12.461Z,36.20
2022-07-27T07:01:44.442Z,36.10
2022-07-27T07:04:17.980Z,36.00
2022-07-27T07:06:54.443Z,35.90
2022-07-27T07:09:23.770Z,35.90
2022-07-27T07:11:53.077Z,35.90
2022-07-27T07:14:22.470Z,35.80
2022-07-27T07:16:52.041Z,35.80
2022-07-27T07:19:21.708Z,35.80
2022-07-27T07:21:52.789Z,35.90
2022-07-27T07:24:22.371Z,35.90
2022-07-27T07:26:51.709Z,35.90
2022-07-27T07:29:21.121Z,35.80
2022-07-27T07:31:50.472Z,35.70
2022-07-27T07:34:19.831Z,35.60
2022-07-27T07:36:49.174Z,35.50
2022-07-27T07:39:18.546Z,35.40
2022-07-27T07:41:48.009Z,35.40
2022-07-27T07:44:17.346Z,35.40
2022-07-27T07:46:47.412Z,35.40
2022-07-27T07:49:21.465Z,35.30
2022-07-27T07:52:07.695Z,35.20
2022-07-27T07:54:37.090Z,35.00
2022-07-27T07:57:06.651Z,34.90
2022-07-27T07:59:35.994Z,34.80
2022-07-27T08:02:05.689Z,34.60
2022-07-27T08:04:35.126Z,34.50
2022-07-27T08:07:07.291Z,34.50
2022-07-27T08:09:36.722Z,34.40
2022-07-27T08:12:07.573Z,34.40
2022-07-27T08:14:37.247Z,34.50
2022-07-27T08:17:06.700Z,34.60
2022-07-27T08:19:40.033Z,34.60
2022-07-27T08:22:12.520Z,34.70
2022-07-27T08:24:44.665Z,34.70
2022-07-27T08:27:13.984Z,34.80
2022-07-27T08:29:43.342Z,34.90
2022-07-27T08:32:12.911Z,34.90
2022-07-27T08:34:42.306Z,34.90
2022-07-27T08:37:15.328Z,34.90
2022-07-27T08:42:35.500Z,35.00
2022-07-27T08:45:06.528Z,35.10
2022-07-27T08:47:37.117Z,35.10
2022-07-27T08:50:24.387Z,35.10
2022-07-27T08:53:09.916Z,35.20
2022-07-27T08:55:41.445Z,35.30
2022-07-27T08:58:12.480Z,35.30
2022-07-27T09:00:44.813Z,35.20
2022-07-27T09:03:19.603Z,35.10
2022-07-27T09:05:56.018Z,35.10
2022-07-27T09:08:30.422Z,34.90
2022-07-27T09:11:01.203Z,34.90
2022-07-27T09:13:35.959Z,34.90
2022-07-27T09:16:20.823Z,34.90
2022-07-27T09:18:59.621Z,34.80
2022-07-27T09:21:29.646Z,34.80
2022-07-27T09:24:17.824Z,34.80
2022-07-27T09:27:05.398Z,34.80
2022-07-27T09:29:38.468Z,34.70
2022-07-27T09:32:19.724Z,34.60
2022-07-27T09:34:49.123Z,34.60
2022-07-27T09:37:26.714Z,34.50
2022-07-27T09:40:15.593Z,34.40
2022-07-27T09:43:52.375Z,34.40
2022-07-27T09:46:08.981Z,34.40
2022-07-27T09:48:39.177Z,34.30
2022-07-27T09:51:55.628Z,34.20
2022-07-27T09:54:09.212Z,34.20
2022-07-27T09:56:38.706Z,34.10
2022-07-27T09:59:08.021Z,34.00
2022-07-27T10:01:46.867Z,34.00
2022-07-27T10:04:18.694Z,33.90
2022-07-27T10:07:02.112Z,33.80
2022-07-27T10:09:36.078Z,33.60
2022-07-27T10:12:05.743Z,33.60
2022-07-27T10:14:34.990Z,33.50
2022-07-27T10:17:04.949Z,33.40
2022-07-27T10:19:47.886Z,33.40
2022-07-27T10:22:17.123Z,33.30
2022-07-27T10:24:52.753Z,33.20
2022-07-27T10:27:30.831Z,33.20
2022-07-27T10:30:00.820Z,33.10
2022-07-27T10:32:34.900Z,33.00
2022-07-27T10:35:04.222Z,33.00
2022-07-27T10:37:35.471Z,33.00
2022-07-27T10:40:26.903Z,32.90
2022-07-27T10:43:22.373Z,32.80
2022-07-27T10:46:02.055Z,32.80
2022-07-27T10:48:48.834Z,32.70
2022-07-27T10:51:35.355Z,32.70
2022-07-27T10:54:33.607Z,32.70
2022-07-27T10:57:04.061Z,32.60
2022-07-27T11:00:07.500Z,32.60
2022-07-27T11:02:42.361Z,32.50
2022-07-27T11:05:53.822Z,32.50
2022-07-27T11:08:35.467Z,32.40
2022-07-27T11:10:54.729Z,32.30
2022-07-27T11:13:25.810Z,32.30
2022-07-27T11:16:27.996Z,32.30
2022-07-27T11:19:02.506Z,32.30
2022-07-27T11:21:50.538Z,32.20
2022-07-27T11:24:20.039Z,32.20
2022-07-27T11:26:51.688Z,32.10
2022-07-27T11:29:24.165Z,32.10
2022-07-27T11:31:57.698Z,32.00
2022-07-27T11:34:35.622Z,32.00
2022-07-27T11:37:13.382Z,31.90
2022-07-27T11:42:41.755Z,31.90
2022-07-27T11:45:11.271Z,31.80
2022-07-27T11:47:40.458Z,31.80
2022-07-27T11:50:12.720Z,31.70
2022-07-27T11:52:42.680Z,31.70
2022-07-27T11:55:12.888Z,31.60
2022-07-27T11:57:42.744Z,31.60
2022-07-27T12:00:12.884Z,31.60
2022-07-27T12:02:51.536Z,31.50
2022-07-27T12:05:21.151Z,31.50
2022-07-27T12:07:50.688Z,31.50
2022-07-27T12:10:20.505Z,31.40
2022-07-27T12:12:51.403Z,31.30
2022-07-27T12:15:44.423Z,31.30
2022-07-27T12:18:11.898Z,31.30
2022-07-27T12:20:41.260Z,31.20
2022-07-27T12:23:11.705Z,31.20
2022-07-27T12:25:42.393Z,31.10
2022-07-27T12:28:18.988Z,31.10
2022-07-27T12:30:53.451Z,31.10
2022-07-27T12:33:38.140Z,31.00
2022-07-27T12:36:10.635Z,31.00
2022-07-27T12:38:45.508Z,31.00
2022-07-27T12:41:27.693Z,30.90
2022-07-27T12:44:14.491Z,30.90
2022-07-27T12:47:00.476Z,30.90
2022-07-27T12:49:46.084Z,30.90
2022-07-27T12:52:15.820Z,30.90
2022-07-27T12:54:45.118Z,30.80
2022-07-27T12:57:24.316Z,30.80
2022-07-27T13:00:03.700Z,30.80
2022-07-27T13:02:33.211Z,30.70
2022-07-27T13:05:02.335Z,30.70
2022-07-27T13:07:31.691Z,30.70
2022-07-27T13:10:02.705Z,30.70
2022-07-27T13:12:32.897Z,30.70
2022-07-27T13:15:02.522Z,30.60
2022-07-27T13:17:31.703Z,30.60
2022-07-27T13:20:00.934Z,30.60
2022-07-27T13:22:30.418Z,30.60
2022-07-27T13:24:59.617Z,30.60
2022-07-27T13:27:29.718Z,30.60
2022-07-27T13:30:00.960Z,30.50
2022-07-27T13:32:30.513Z,30.50
2022-07-27T13:34:59.678Z,30.50
2022-07-27T13:37:29.059Z,30.50
2022-07-27T13:39:58.782Z,30.50
2022-07-27T13:42:27.948Z,30.50
2022-07-27T13:45:09.313Z,30.50
2022-07-27T13:47:40.148Z,30.50
2022-07-27T13:50:17.956Z,30.50
2022-07-27T13:52:49.383Z,30.50
2022-07-27T13:55:20.698Z,30.40
2022-07-27T13:57:51.597Z,30.40
2022-07-27T14:00:20.923Z,30.40
2022-07-27T14:02:50.149Z,30.30
2022-07-27T14:05:20.193Z,30.30
2022-07-27T14:07:49.837Z,30.30
2022-07-27T14:10:36.621Z,30.20
2022-07-27T14:13:08.717Z,30.20
2022-07-27T14:15:53.601Z,30.10
2022-07-27T14:18:29.018Z,30.10
2022-07-27T14:21:00.742Z,30.10
2022-07-27T14:23:30.982Z,30.00
2022-07-27T14:26:01.750Z,30.00
2022-07-27T14:28:32.207Z,29.90
2022-07-27T14:31:02.700Z,29.90
2022-07-27T14:33:36.726Z,29.80
2022-07-27T14:36:08.170Z,29.80
2022-07-27T14:38:38.981Z,29.80
2022-07-27T14:41:09.069Z,29.80
2022-07-27T14:43:38.424Z,29.80
2022-07-27T14:46:08.404Z,29.80
2022-07-27T14:49:04.584Z,29.70
2022-07-27T14:51:27.299Z,29.70
2022-07-27T14:53:56.659Z,29.70
2022-07-27T14:56:25.995Z,29.70
2022-07-27T14:58:55.356Z,29.60
2022-07-27T15:01:24.890Z,29.60
2022-07-27T15:03:56.480Z,29.60
2022-07-27T15:06:25.611Z,29.50
2022-07-27T15:08:54.767Z,29.50
2022-07-27T15:11:23.895Z,29.50
2022-07-27T15:13:53.033Z,29.40
2022-07-27T15:16:22.139Z,29.40
2022-07-27T15:18:51.262Z,29.40
2022-07-27T15:21:20.535Z,29.30
2022-07-27T15:23:49.789Z,29.30
2022-07-27T15:26:19.072Z,29.30
2022-07-27T15:28:48.272Z,29.30
2022-07-27T15:31:17.571Z,29.30
2022-07-27T15:33:46.748Z,29.20
2022-07-27T15:36:31.900Z,29.20
2022-07-27T15:39:02.635Z,29.20
2022-07-27T15:41:33.848Z,29.20
2022-07-27T15:44:03.002Z,29.10
2022-07-27T15:46:33.605Z,29.10
2022-07-27T15:49:03.947Z,29.10
2022-07-27T15:51:33.549Z,29.10
2022-07-27T15:54:02.638Z,29.00
2022-07-27T15:56:31.772Z,29.00
2022-07-27T15:59:00.833Z,29.00
2022-07-27T16:01:35.487Z,29.00
2022-07-27T16:04:06.419Z,29.00
2022-07-27T16:06:39.050Z,28.90
2022-07-27T16:09:10.560Z,28.90
2022-07-27T16:11:40.234Z,28.90
2022-07-27T16:14:09.583Z,28.90
2022-07-27T16:16:38.996Z,28.80
2022-07-27T16:19:13.212Z,28.80
2022-07-27T16:21:53.878Z,28.80
2022-07-27T16:24:27.280Z,28.80
2022-07-27T16:26:56.770Z,28.80
2022-07-27T16:29:28.329Z,28.70
2022-07-27T16:32:01.084Z,28.70
2022-07-27T16:34:32.504Z,28.70
2022-07-27T16:37:02.823Z,28.70
2022-07-27T16:39:34.411Z,28.70
2022-07-27T16:42:04.215Z,28.60
2022-07-27T16:44:33.696Z,28.60
2022-07-27T16:47:03.820Z,28.60
2022-07-27T16:49:36.818Z,28.60
2022-07-27T16:52:07.543Z,28.60
2022-07-27T16:54:39.530Z,28.60
2022-07-27T16:57:11.728Z,28.50
2022-07-27T16:59:42.715Z,28.50
2022-07-27T17:02:12.469Z,28.50
2022-07-27T17:04:41.915Z,28.50
2022-07-27T17:07:12.569Z,28.50
2022-07-27T17:09:42.799Z,28.50
2022-07-27T17:12:16.306Z,28.40
2022-07-27T17:14:47.520Z,28.40
2022-07-27T17:17:16.917Z,28.40
2022-07-27T17:19:46.198Z,28.40
2022-07-27T17:22:15.546Z,28.40
2022-07-27T17:24:44.923Z,28.40
2022-07-27T17:27:14.221Z,28.40
2022-07-27T17:29:44.416Z,28.40
2022-07-27T17:32:13.797Z,28.40
2022-07-27T17:34:46.476Z,28.30
2022-07-27T17:37:16.491Z,28.40
2022-07-27T17:39:46.490Z,28.30
2022-07-27T17:42:16.185Z,28.30
2022-07-27T17:44:45.509Z,28.30
2022-07-27T17:47:15.241Z,28.20
2022-07-27T17:49:46.078Z,28.20
2022-07-27T17:52:16.223Z,28.20
2022-07-27T17:54:48.454Z,28.20
2022-07-27T17:57:18.125Z,28.20
2022-07-27T17:59:47.588Z,28.20
2022-07-27T18:02:19.666Z,28.20
2022-07-27T18:04:49.157Z,28.20
2022-07-27T18:07:18.436Z,28.10
2022-07-27T18:09:47.526Z,28.10
2022-07-27T18:12:22.481Z,28.10
2022-07-27T18:15:10.055Z,28.10
2022-07-27T18:17:40.335Z,28.10
2022-07-27T18:20:13.079Z,28.10
2022-07-27T18:22:42.329Z,28.10
2022-07-27T18:25:12.079Z,28.10
2022-07-27T18:27:42.003Z,28.10
2022-07-27T18:30:11.524Z,28.10
2022-07-27T18:32:40.774Z,28.10
2022-07-27T18:35:10.796Z,28.10
2022-07-27T18:37:40.062Z,28.10
2022-07-27T18:40:10.376Z,28.10
2022-07-27T18:42:40.557Z,28.10
2022-07-27T18:45:11.500Z,28.00
2022-07-27T18:47:40.774Z,28.00
2022-07-27T18:50:19.028Z,28.00
2022-07-27T18:52:48.144Z,28.00
2022-07-27T18:55:19.737Z,28.00
2022-07-27T18:57:49.725Z,27.90
2022-07-27T19:00:18.868Z,27.90
2022-07-27T19:02:55.312Z,27.90
2022-07-27T19:05:32.204Z,27.90
2022-07-27T19:08:13.531Z,27.90
2022-07-27T19:10:46.643Z,27.90
2022-07-27T19:13:16.058Z,27.90
2022-07-27T19:15:46.361Z,27.90
2022-07-27T19:18:15.748Z,27.90
2022-07-27T19:20:45.137Z,27.90
2022-07-27T19:23:14.804Z,27.90
2022-07-27T19:25:46.262Z,27.90
2022-07-27T19:28:21.394Z,27.90
2022-07-27T19:30:51.071Z,27.90
2022-07-27T19:33:20.675Z,27.90
2022-07-27T19:35:51.695Z,27.90
2022-07-27T19:38:21.217Z,27.90
2022-07-27T19:40:50.615Z,27.90
2022-07-27T19:43:20.642Z,27.90
2022-07-27T19:45:50.142Z,27.90
2022-07-27T19:48:19.665Z,27.90
2022-07-27T19:50:48.975Z,27.90
2022-07-27T19:53:18.304Z,27.90
2022-07-27T19:55:47.663Z,27.90
2022-07-27T19:58:17.331Z,27.90
2022-07-27T20:00:51.401Z,27.90
2022-07-27T20:03:21.828Z,27.90
2022-07-27T20:05:51.265Z,27.90
2022-07-27T20:08:20.686Z,27.90
2022-07-27T20:10:50.159Z,27.90
2022-07-27T20:13:19.617Z,27.90
2022-07-27T20:15:49.050Z,27.90
2022-07-27T20:18:18.375Z,27.80
2022-07-27T20:20:47.931Z,27.80
2022-07-27T20:23:17.402Z,27.80
2022-07-27T20:25:46.726Z,27.70
2022-07-27T20:28:15.999Z,27.80
2022-07-27T20:30:45.437Z,27.70
2022-07-27T20:33:16.233Z,27.80
2022-07-27T20:35:45.566Z,27.70
2022-07-27T20:38:14.991Z,27.70
2022-07-27T20:40:44.610Z,27.70
2022-07-27T20:43:14.280Z,27.60
2022-07-27T20:45:43.667Z,27.60
2022-07-27T20:48:13.087Z,27.60
2022-07-27T20:50:42.443Z,27.60
2022-07-27T20:53:11.806Z,27.60
2022-07-27T20:55:42.053Z,27.50
2022-07-27T20:58:11.501Z,27.50
2022-07-27T21:00:41.056Z,27.50
2022-07-27T21:03:10.466Z,27.40
2022-07-27T21:05:39.619Z,27.40
2022-07-27T21:08:08.722Z,27.40
2022-07-27T21:10:37.884Z,27.40
2022-07-27T21:13:07.210Z,27.40
2022-07-27T21:15:36.522Z,27.40
2022-07-27T21:18:05.778Z,27.30
2022-07-27T21:20:34.957Z,27.30
2022-07-27T21:23:21.751Z,27.30
2022-07-27T21:25:50.932Z,27.30
2022-07-27T21:28:23.066Z,27.30
2022-07-27T21:30:54.430Z,27.30
2022-07-27T21:33:23.676Z,27.30
2022-07-27T21:35:52.937Z,27.30
2022-07-27T21:38:22.181Z,27.30
2022-07-27T21:40:51.325Z,27.20
2022-07-27T21:43:20.671Z,27.20
2022-07-27T21:45:50.169Z,27.20
2022-07-27T21:48:19.419Z,27.20
2022-07-27T21:50:48.453Z,27.20
2022-07-27T21:53:17.836Z,27.10
2022-07-27T21:55:47.491Z,27.10
2022-07-27T21:58:16.792Z,27.10
2022-07-27T22:00:45.939Z,27.10
2022-07-27T22:03:15.839Z,27.10
2022-07-27T22:05:45.398Z,27.10
2022-07-27T22:08:14.722Z,27.10
2022-07-27T22:10:44.026Z,27.10
2022-07-27T22:13:14.815Z,27.10
2022-07-27T22:15:44.148Z,27.10
2022-07-27T22:18:13.523Z,27.10
2022-07-27T22:20:42.988Z,27.10
2022-07-27T22:23:12.356Z,27.10
2022-07-27T22:25:42.169Z,27.10
2022-07-27T22:28:11.530Z,27.10
2022-07-27T22:30:41.336Z,27.10
2022-07-27T22:33:10.823Z,27.00
2022-07-27T22:35:40.259Z,27.00
2022-07-27T22:38:09.614Z,27.00
2022-07-27T22:40:39.053Z,27.00
2022-07-27T22:43:08.511Z,27.00
2022-07-27T22:45:37.889Z,27.00
2022-07-27T22:48:07.624Z,27.00
2022-07-27T22:50:36.968Z,27.00
2022-07-27T22:53:06.588Z,27.00
2022-07-27T22:55:38.968Z,27.00
2022-07-27T22:58:08.527Z,27.00
2022-07-27T23:00:37.970Z,27.00
2022-07-27T23:03:07.581Z,27.00
2022-07-27T23:05:36.807Z,26.90
2022-07-27T23:08:06.145Z,27.00
2022-07-27T23:10:47.310Z,27.00
2022-07-27T23:13:18.303Z,27.00
2022-07-27T23:15:48.331Z,26.90
2022-07-27T23:18:18.151Z,27.00
2022-07-27T23:20:47.339Z,27.00
2022-07-27T23:23:17.018Z,27.00
2022-07-27T23:25:47.609Z,27.10
2022-07-27T23:28:17.857Z,27.10
2022-07-27T23:30:47.012Z,27.10
2022-07-27T23:33:16.633Z,27.10
2022-07-27T23:35:46.355Z,27.20
2022-07-27T23:38:15.510Z,27.20
2022-07-27T23:40:44.630Z,27.20
2022-07-27T23:43:13.890Z,27.30
2022-07-27T23:45:43.036Z,27.30
2022-07-27T23:48:12.112Z,27.40
2022-07-27T23:50:41.227Z,27.40
2022-07-27T23:53:10.651Z,27.50
2022-07-27T23:55:39.828Z,27.50
2022-07-27T23:58:08.939Z,27.60
